sensor_id;sensor_type;location;lat;lon;timestamp;P1;durP1;ratioP1;P2;durP2;ratioP2
26014;SDS011;13793;55.388;37.844;2023-02-21T00:01:22;62.90;;;25.35;;
26014;SDS011;13793;55.388;37.844;2023-02-21T00:04:11;59.15;;;23.98;;
26014;SDS011;13793;55.388;37.844;2023-02-21T00:07:02;62.67;;;26.73;;
26014;SDS011;13793;55.388;37.844;2023-02-21T00:09:50;60.25;;;25.37;;
26014;SDS011;13793;55.388;37.844;2023-02-21T00:12:39;63.52;;;24.98;;
26014;SDS011;13793;55.388;37.844;2023-02-21T00:15:27;68.80;;;25.30;;
26014;SDS011;13793;55.388;37.844;2023-02-21T00:18:16;62.00;;;24.87;;
26014;SDS011;13793;55.388;37.844;2023-02-21T00:21:05;62.20;;;26.75;;
26014;SDS011;13793;55.388;37.844;2023-02-21T00:23:54;62.65;;;25.00;;
26014;SDS011;13793;55.388;37.844;2023-02-21T00:26:42;67.70;;;26.12;;
26014;SDS011;13793;55.388;37.844;2023-02-21T00:29:31;57.35;;;25.00;;
26014;SDS011;13793;55.388;37.844;2023-02-21T00:32:20;62.03;;;24.07;;
26014;SDS011;13793;55.388;37.844;2023-02-21T00:35:08;59.30;;;25.40;;
26014;SDS011;13793;55.388;37.844;2023-02-21T00:37:57;58.02;;;24.70;;
26014;SDS011;13793;55.388;37.844;2023-02-21T00:40:45;70.42;;;28.67;;
26014;SDS011;13793;55.388;37.844;2023-02-21T00:43:34;62.65;;;26.23;;
26014;SDS011;13793;55.388;37.844;2023-02-21T00:46:23;60.83;;;25.15;;
26014;SDS011;13793;55.388;37.844;2023-02-21T00:49:12;60.92;;;25.70;;
26014;SDS011;13793;55.388;37.844;2023-02-21T00:52:00;64.22;;;26.48;;
26014;SDS011;13793;55.388;37.844;2023-02-21T00:54:49;58.08;;;25.68;;
26014;SDS011;13793;55.388;37.844;2023-02-21T00:57:38;62.93;;;25.70;;
26014;SDS011;13793;55.388;37.844;2023-02-21T01:00:27;64.03;;;26.85;;
26014;SDS011;13793;55.388;37.844;2023-02-21T01:03:15;64.25;;;27.52;;
26014;SDS011;13793;55.388;37.844;2023-02-21T01:06:07;62.80;;;27.60;;
26014;SDS011;13793;55.388;37.844;2023-02-21T01:08:55;74.42;;;29.15;;
26014;SDS011;13793;55.388;37.844;2023-02-21T01:11:44;65.35;;;28.98;;
26014;SDS011;13793;55.388;37.844;2023-02-21T01:14:33;68.62;;;28.50;;
26014;SDS011;13793;55.388;37.844;2023-02-21T01:17:21;71.80;;;28.67;;
26014;SDS011;13793;55.388;37.844;2023-02-21T01:20:10;65.50;;;27.85;;
26014;SDS011;13793;55.388;37.844;2023-02-21T01:22:58;64.62;;;27.95;;
26014;SDS011;13793;55.388;37.844;2023-02-21T01:25:47;65.37;;;27.52;;
26014;SDS011;13793;55.388;37.844;2023-02-21T01:28:35;70.30;;;28.80;;
26014;SDS011;13793;55.388;37.844;2023-02-21T01:31:25;67.95;;;27.00;;
26014;SDS011;13793;55.388;37.844;2023-02-21T01:34:14;65.37;;;26.57;;
26014;SDS011;13793;55.388;37.844;2023-02-21T01:37:02;69.50;;;28.38;;
26014;SDS011;13793;55.388;37.844;2023-02-21T01:39:51;71.62;;;28.73;;
26014;SDS011;13793;55.388;37.844;2023-02-21T01:42:40;70.03;;;27.98;;
26014;SDS011;13793;55.388;37.844;2023-02-21T01:48:26;68.03;;;28.50;;
26014;SDS011;13793;55.388;37.844;2023-02-21T01:51:17;69.03;;;26.97;;
26014;SDS011;13793;55.388;37.844;2023-02-21T01:54:07;73.87;;;28.70;;
26014;SDS011;13793;55.388;37.844;2023-02-21T01:56:55;62.48;;;26.42;;
26014;SDS011;13793;55.388;37.844;2023-02-21T01:59:46;65.75;;;27.37;;
26014;SDS011;13793;55.388;37.844;2023-02-21T02:02:38;64.62;;;26.05;;
26014;SDS011;13793;55.388;37.844;2023-02-21T02:05:39;72.85;;;28.57;;
26014;SDS011;13793;55.388;37.844;2023-02-21T02:08:30;71.20;;;27.60;;
26014;SDS011;13793;55.388;37.844;2023-02-21T02:11:25;69.42;;;27.05;;
26014;SDS011;13793;55.388;37.844;2023-02-21T02:14:36;62.60;;;25.97;;
26014;SDS011;13793;55.388;37.844;2023-02-21T02:17:14;70.70;;;27.00;;
26014;SDS011;13793;55.388;37.844;2023-02-21T02:20:08;69.17;;;27.42;;
26014;SDS011;13793;55.388;37.844;2023-02-21T02:25:55;65.70;;;24.85;;
26014;SDS011;13793;55.388;37.844;2023-02-21T02:28:25;67.10;;;29.15;;
26014;SDS011;13793;55.388;37.844;2023-02-21T02:31:07;71.33;;;27.58;;
26014;SDS011;13793;55.388;37.844;2023-02-21T02:34:29;70.37;;;27.13;;
26014;SDS011;13793;55.388;37.844;2023-02-21T02:36:45;63.98;;;26.45;;
26014;SDS011;13793;55.388;37.844;2023-02-21T02:44:56;71.28;;;27.25;;
26014;SDS011;13793;55.388;37.844;2023-02-21T02:47:28;79.12;;;28.50;;
26014;SDS011;13793;55.388;37.844;2023-02-21T02:49:56;77.05;;;29.15;;
26014;SDS011;13793;55.388;37.844;2023-02-21T02:52:28;79.25;;;30.35;;
26014;SDS011;13793;55.388;37.844;2023-02-21T02:55:01;72.03;;;29.15;;
26014;SDS011;13793;55.388;37.844;2023-02-21T02:57:33;65.05;;;28.05;;
26014;SDS011;13793;55.388;37.844;2023-02-21T03:00:06;72.85;;;30.57;;
26014;SDS011;13793;55.388;37.844;2023-02-21T03:05:20;73.55;;;28.23;;
26014;SDS011;13793;55.388;37.844;2023-02-21T03:10:43;75.65;;;29.87;;
26014;SDS011;13793;55.388;37.844;2023-02-21T03:19:07;70.32;;;29.05;;
26014;SDS011;13793;55.388;37.844;2023-02-21T03:22:09;71.55;;;30.30;;
26014;SDS011;13793;55.388;37.844;2023-02-21T03:24:26;70.87;;;29.23;;
26014;SDS011;13793;55.388;37.844;2023-02-21T03:26:59;79.45;;;30.05;;
26014;SDS011;13793;55.388;37.844;2023-02-21T03:29:39;72.47;;;30.17;;
26014;SDS011;13793;55.388;37.844;2023-02-21T03:32:12;77.65;;;30.95;;
26014;SDS011;13793;55.388;37.844;2023-02-21T03:34:42;74.30;;;29.42;;
26014;SDS011;13793;55.388;37.844;2023-02-21T03:37:20;72.85;;;30.68;;
26014;SDS011;13793;55.388;37.844;2023-02-21T03:39:51;74.37;;;30.57;;
26014;SDS011;13793;55.388;37.844;2023-02-21T03:42:21;70.10;;;28.35;;
26014;SDS011;13793;55.388;37.844;2023-02-21T03:44:52;71.35;;;28.80;;
26014;SDS011;13793;55.388;37.844;2023-02-21T03:47:23;79.77;;;31.23;;
26014;SDS011;13793;55.388;37.844;2023-02-21T03:49:53;69.75;;;28.95;;
26014;SDS011;13793;55.388;37.844;2023-02-21T03:52:24;68.10;;;27.45;;
26014;SDS011;13793;55.388;37.844;2023-02-21T03:54:57;74.12;;;28.75;;
26014;SDS011;13793;55.388;37.844;2023-02-21T03:57:29;78.22;;;30.40;;
26014;SDS011;13793;55.388;37.844;2023-02-21T03:59:59;71.25;;;28.00;;
26014;SDS011;13793;55.388;37.844;2023-02-21T04:02:31;69.77;;;26.55;;
26014;SDS011;13793;55.388;37.844;2023-02-21T04:05:02;71.80;;;28.70;;
26014;SDS011;13793;55.388;37.844;2023-02-21T04:07:33;71.90;;;28.05;;
26014;SDS011;13793;55.388;37.844;2023-02-21T04:10:04;72.72;;;27.93;;
26014;SDS011;13793;55.388;37.844;2023-02-21T04:12:37;69.55;;;28.23;;
26014;SDS011;13793;55.388;37.844;2023-02-21T04:15:08;69.60;;;28.47;;
26014;SDS011;13793;55.388;37.844;2023-02-21T04:17:40;71.80;;;28.75;;
26014;SDS011;13793;55.388;37.844;2023-02-21T04:20:10;65.52;;;28.35;;
26014;SDS011;13793;55.388;37.844;2023-02-21T04:22:43;64.77;;;27.32;;
26014;SDS011;13793;55.388;37.844;2023-02-21T04:25:14;71.42;;;28.57;;
26014;SDS011;13793;55.388;37.844;2023-02-21T04:27:50;73.87;;;27.60;;
26014;SDS011;13793;55.388;37.844;2023-02-21T04:30:20;70.90;;;28.92;;
26014;SDS011;13793;55.388;37.844;2023-02-21T04:32:52;74.03;;;30.43;;
26014;SDS011;13793;55.388;37.844;2023-02-21T04:35:23;71.90;;;29.12;;
26014;SDS011;13793;55.388;37.844;2023-02-21T04:37:55;72.32;;;27.75;;
26014;SDS011;13793;55.388;37.844;2023-02-21T04:40:26;73.45;;;27.85;;
26014;SDS011;13793;55.388;37.844;2023-02-21T04:42:56;73.33;;;29.55;;
26014;SDS011;13793;55.388;37.844;2023-02-21T04:45:27;71.00;;;29.75;;
26014;SDS011;13793;55.388;37.844;2023-02-21T04:47:58;70.60;;;29.95;;
26014;SDS011;13793;55.388;37.844;2023-02-21T04:50:29;70.37;;;28.55;;
26014;SDS011;13793;55.388;37.844;2023-02-21T04:53:00;71.40;;;29.40;;
26014;SDS011;13793;55.388;37.844;2023-02-21T04:55:31;71.35;;;29.12;;
26014;SDS011;13793;55.388;37.844;2023-02-21T04:58:02;68.47;;;26.45;;
26014;SDS011;13793;55.388;37.844;2023-02-21T05:00:32;73.87;;;28.20;;
26014;SDS011;13793;55.388;37.844;2023-02-21T05:03:03;64.25;;;26.45;;
26014;SDS011;13793;55.388;37.844;2023-02-21T05:05:33;64.42;;;25.57;;
26014;SDS011;13793;55.388;37.844;2023-02-21T05:08:04;66.85;;;26.25;;
26014;SDS011;13793;55.388;37.844;2023-02-21T05:10:34;67.60;;;26.70;;
26014;SDS011;13793;55.388;37.844;2023-02-21T05:13:05;68.65;;;26.75;;
26014;SDS011;13793;55.388;37.844;2023-02-21T05:15:36;67.45;;;25.68;;
26014;SDS011;13793;55.388;37.844;2023-02-21T05:18:07;63.70;;;26.25;;
26014;SDS011;13793;55.388;37.844;2023-02-21T05:20:38;64.15;;;26.57;;
26014;SDS011;13793;55.388;37.844;2023-02-21T05:23:08;62.58;;;24.98;;
26014;SDS011;13793;55.388;37.844;2023-02-21T05:25:39;53.87;;;20.97;;
26014;SDS011;13793;55.388;37.844;2023-02-21T05:28:09;61.65;;;24.98;;
26014;SDS011;13793;55.388;37.844;2023-02-21T05:30:40;60.67;;;25.10;;
26014;SDS011;13793;55.388;37.844;2023-02-21T05:33:11;55.95;;;22.75;;
26014;SDS011;13793;55.388;37.844;2023-02-21T05:35:41;65.35;;;24.02;;
26014;SDS011;13793;55.388;37.844;2023-02-21T05:38:14;60.20;;;24.30;;
26014;SDS011;13793;55.388;37.844;2023-02-21T05:40:45;56.75;;;23.57;;
26014;SDS011;13793;55.388;37.844;2023-02-21T05:43:15;58.45;;;23.77;;
26014;SDS011;13793;55.388;37.844;2023-02-21T05:45:46;59.58;;;23.30;;
26014;SDS011;13793;55.388;37.844;2023-02-21T05:48:17;57.55;;;23.25;;
26014;SDS011;13793;55.388;37.844;2023-02-21T05:50:48;52.78;;;22.65;;
26014;SDS011;13793;55.388;37.844;2023-02-21T05:53:18;54.95;;;21.97;;
26014;SDS011;13793;55.388;37.844;2023-02-21T05:55:49;60.43;;;24.30;;
26014;SDS011;13793;55.388;37.844;2023-02-21T05:58:20;60.60;;;24.05;;
26014;SDS011;13793;55.388;37.844;2023-02-21T06:00:50;57.50;;;23.75;;
26014;SDS011;13793;55.388;37.844;2023-02-21T06:03:21;56.50;;;22.95;;
26014;SDS011;13793;55.388;37.844;2023-02-21T06:05:52;52.73;;;22.45;;
26014;SDS011;13793;55.388;37.844;2023-02-21T06:08:23;59.30;;;23.87;;
26014;SDS011;13793;55.388;37.844;2023-02-21T06:10:53;55.17;;;23.73;;
26014;SDS011;13793;55.388;37.844;2023-02-21T06:13:24;53.50;;;22.50;;
26014;SDS011;13793;55.388;37.844;2023-02-21T06:15:55;51.98;;;22.65;;
26014;SDS011;13793;55.388;37.844;2023-02-21T06:18:26;52.85;;;22.58;;
26014;SDS011;13793;55.388;37.844;2023-02-21T06:20:56;50.50;;;21.82;;
26014;SDS011;13793;55.388;37.844;2023-02-21T06:23:27;51.35;;;22.52;;
26014;SDS011;13793;55.388;37.844;2023-02-21T06:25:58;54.38;;;22.25;;
26014;SDS011;13793;55.388;37.844;2023-02-21T06:28:29;50.20;;;22.75;;
26014;SDS011;13793;55.388;37.844;2023-02-21T06:30:59;55.38;;;22.70;;
26014;SDS011;13793;55.388;37.844;2023-02-21T06:33:31;51.48;;;21.05;;
26014;SDS011;13793;55.388;37.844;2023-02-21T06:36:03;53.80;;;21.95;;
26014;SDS011;13793;55.388;37.844;2023-02-21T06:38:34;53.40;;;23.60;;
26014;SDS011;13793;55.388;37.844;2023-02-21T06:41:06;55.43;;;23.73;;
26014;SDS011;13793;55.388;37.844;2023-02-21T06:43:37;53.83;;;22.50;;
26014;SDS011;13793;55.388;37.844;2023-02-21T06:46:08;54.13;;;22.55;;
26014;SDS011;13793;55.388;37.844;2023-02-21T06:48:38;52.75;;;23.30;;
26014;SDS011;13793;55.388;37.844;2023-02-21T06:51:09;52.55;;;22.50;;
26014;SDS011;13793;55.388;37.844;2023-02-21T06:53:42;52.17;;;23.35;;
26014;SDS011;13793;55.388;37.844;2023-02-21T06:56:13;48.00;;;20.75;;
26014;SDS011;13793;55.388;37.844;2023-02-21T06:58:44;50.00;;;21.07;;
26014;SDS011;13793;55.388;37.844;2023-02-21T07:01:14;49.58;;;22.58;;
26014;SDS011;13793;55.388;37.844;2023-02-21T07:03:45;47.13;;;21.70;;
26014;SDS011;13793;55.388;37.844;2023-02-21T07:06:17;51.33;;;21.70;;
26014;SDS011;13793;55.388;37.844;2023-02-21T07:08:48;46.83;;;21.75;;
26014;SDS011;13793;55.388;37.844;2023-02-21T07:11:19;48.53;;;22.20;;
26014;SDS011;13793;55.388;37.844;2023-02-21T07:13:49;49.50;;;22.97;;
26014;SDS011;13793;55.388;37.844;2023-02-21T07:16:21;50.33;;;21.87;;
26014;SDS011;13793;55.388;37.844;2023-02-21T07:18:51;47.17;;;20.60;;
26014;SDS011;13793;55.388;37.844;2023-02-21T07:21:22;47.57;;;21.13;;
26014;SDS011;13793;55.388;37.844;2023-02-21T07:23:55;44.87;;;20.33;;
26014;SDS011;13793;55.388;37.844;2023-02-21T07:26:25;47.07;;;20.80;;
26014;SDS011;13793;55.388;37.844;2023-02-21T07:28:56;51.33;;;21.23;;
26014;SDS011;13793;55.388;37.844;2023-02-21T07:31:27;44.87;;;21.20;;
26014;SDS011;13793;55.388;37.844;2023-02-21T07:33:57;42.67;;;20.43;;
26014;SDS011;13793;55.388;37.844;2023-02-21T07:36:28;46.17;;;20.83;;
26014;SDS011;13793;55.388;37.844;2023-02-21T07:38:58;43.00;;;20.90;;
26014;SDS011;13793;55.388;37.844;2023-02-21T07:41:29;43.50;;;21.43;;
26014;SDS011;13793;55.388;37.844;2023-02-21T07:44:00;48.00;;;20.37;;
26014;SDS011;13793;55.388;37.844;2023-02-21T07:46:30;40.03;;;21.27;;
26014;SDS011;13793;55.388;37.844;2023-02-21T07:49:02;42.27;;;20.03;;
26014;SDS011;13793;55.388;37.844;2023-02-21T07:51:32;39.43;;;20.30;;
26014;SDS011;13793;55.388;37.844;2023-02-21T07:54:03;38.67;;;20.37;;
26014;SDS011;13793;55.388;37.844;2023-02-21T07:56:34;39.23;;;20.43;;
26014;SDS011;13793;55.388;37.844;2023-02-21T07:59:05;37.43;;;20.37;;
26014;SDS011;13793;55.388;37.844;2023-02-21T08:01:35;37.03;;;19.47;;
26014;SDS011;13793;55.388;37.844;2023-02-21T08:04:06;39.70;;;21.20;;
26014;SDS011;13793;55.388;37.844;2023-02-21T08:06:36;38.70;;;20.63;;
26014;SDS011;13793;55.388;37.844;2023-02-21T08:09:07;38.83;;;19.43;;
26014;SDS011;13793;55.388;37.844;2023-02-21T08:11:37;36.37;;;19.67;;
26014;SDS011;13793;55.388;37.844;2023-02-21T08:14:08;39.20;;;19.97;;
26014;SDS011;13793;55.388;37.844;2023-02-21T08:16:39;33.30;;;19.00;;
26014;SDS011;13793;55.388;37.844;2023-02-21T08:19:10;36.40;;;20.40;;
26014;SDS011;13793;55.388;37.844;2023-02-21T08:21:44;41.13;;;22.43;;
26014;SDS011;13793;55.388;37.844;2023-02-21T08:24:18;39.33;;;19.33;;
26014;SDS011;13793;55.388;37.844;2023-02-21T08:26:49;40.87;;;22.13;;
26014;SDS011;13793;55.388;37.844;2023-02-21T08:29:20;38.70;;;21.27;;
26014;SDS011;13793;55.388;37.844;2023-02-21T08:31:51;34.70;;;18.20;;
26014;SDS011;13793;55.388;37.844;2023-02-21T08:34:22;42.77;;;21.70;;
26014;SDS011;13793;55.388;37.844;2023-02-21T08:36:52;44.20;;;23.90;;
26014;SDS011;13793;55.388;37.844;2023-02-21T08:39:23;48.83;;;24.80;;
26014;SDS011;13793;55.388;37.844;2023-02-21T08:41:55;46.93;;;24.00;;
26014;SDS011;13793;55.388;37.844;2023-02-21T08:44:25;47.27;;;24.70;;
26014;SDS011;13793;55.388;37.844;2023-02-21T08:46:56;44.90;;;25.23;;
26014;SDS011;13793;55.388;37.844;2023-02-21T08:49:26;49.70;;;25.50;;
26014;SDS011;13793;55.388;37.844;2023-02-21T08:51:57;51.17;;;25.97;;
26014;SDS011;13793;55.388;37.844;2023-02-21T08:54:28;45.07;;;24.83;;
26014;SDS011;13793;55.388;37.844;2023-02-21T08:56:59;43.40;;;25.03;;
26014;SDS011;13793;55.388;37.844;2023-02-21T08:59:29;44.40;;;25.20;;
26014;SDS011;13793;55.388;37.844;2023-02-21T09:02:01;44.97;;;25.43;;
26014;SDS011;13793;55.388;37.844;2023-02-21T09:04:34;42.33;;;24.83;;
26014;SDS011;13793;55.388;37.844;2023-02-21T09:07:04;44.57;;;23.87;;
26014;SDS011;13793;55.388;37.844;2023-02-21T09:09:36;41.33;;;23.67;;
26014;SDS011;13793;55.388;37.844;2023-02-21T09:12:07;42.33;;;22.73;;
26014;SDS011;13793;55.388;37.844;2023-02-21T09:14:39;36.90;;;21.30;;
26014;SDS011;13793;55.388;37.844;2023-02-21T09:17:11;41.50;;;22.67;;
26014;SDS011;13793;55.388;37.844;2023-02-21T09:19:42;37.63;;;20.87;;
26014;SDS011;13793;55.388;37.844;2023-02-21T09:22:12;42.33;;;23.30;;
26014;SDS011;13793;55.388;37.844;2023-02-21T09:24:44;39.83;;;21.10;;
26014;SDS011;13793;55.388;37.844;2023-02-21T09:27:15;40.77;;;21.73;;
26014;SDS011;13793;55.388;37.844;2023-02-21T09:29:46;37.40;;;22.00;;
26014;SDS011;13793;55.388;37.844;2023-02-21T09:32:17;37.53;;;21.87;;
26014;SDS011;13793;55.388;37.844;2023-02-21T09:34:48;37.20;;;21.87;;
26014;SDS011;13793;55.388;37.844;2023-02-21T09:37:21;38.20;;;21.93;;
26014;SDS011;13793;55.388;37.844;2023-02-21T09:39:52;38.87;;;22.43;;
26014;SDS011;13793;55.388;37.844;2023-02-21T09:42:24;36.03;;;19.83;;
26014;SDS011;13793;55.388;37.844;2023-02-21T09:44:56;33.53;;;19.67;;
26014;SDS011;13793;55.388;37.844;2023-02-21T09:47:29;33.17;;;19.33;;
26014;SDS011;13793;55.388;37.844;2023-02-21T09:50:00;33.97;;;20.43;;
26014;SDS011;13793;55.388;37.844;2023-02-21T09:52:34;32.80;;;20.40;;
26014;SDS011;13793;55.388;37.844;2023-02-21T09:55:14;34.10;;;20.10;;
26014;SDS011;13793;55.388;37.844;2023-02-21T09:57:58;35.77;;;20.27;;
26014;SDS011;13793;55.388;37.844;2023-02-21T10:00:35;34.50;;;19.73;;
26014;SDS011;13793;55.388;37.844;2023-02-21T10:03:14;34.38;;;19.50;;
26014;SDS011;13793;55.388;37.844;2023-02-21T10:05:44;34.00;;;19.43;;
26014;SDS011;13793;55.388;37.844;2023-02-21T10:08:18;35.47;;;21.30;;
26014;SDS011;13793;55.388;37.844;2023-02-21T10:11:13;33.10;;;20.07;;
26014;SDS011;13793;55.388;37.844;2023-02-21T10:13:53;37.50;;;20.77;;
26014;SDS011;13793;55.388;37.844;2023-02-21T10:17:23;30.57;;;18.63;;
26014;SDS011;13793;55.388;37.844;2023-02-21T10:21:57;33.53;;;19.07;;
26014;SDS011;13793;55.388;37.844;2023-02-21T10:24:29;35.07;;;18.93;;
26014;SDS011;13793;55.388;37.844;2023-02-21T10:27:07;34.17;;;19.67;;
26014;SDS011;13793;55.388;37.844;2023-02-21T10:29:50;33.27;;;19.70;;
26014;SDS011;13793;55.388;37.844;2023-02-21T10:32:23;30.70;;;18.53;;
26014;SDS011;13793;55.388;37.844;2023-02-21T10:34:54;33.97;;;19.60;;
26014;SDS011;13793;55.388;37.844;2023-02-21T10:40:58;33.53;;;19.10;;
26014;SDS011;13793;55.388;37.844;2023-02-21T10:43:09;32.67;;;18.73;;
26014;SDS011;13793;55.388;37.844;2023-02-21T10:45:47;32.77;;;19.43;;
26014;SDS011;13793;55.388;37.844;2023-02-21T10:48:18;30.60;;;18.37;;
26014;SDS011;13793;55.388;37.844;2023-02-21T10:50:50;32.43;;;19.60;;
26014;SDS011;13793;55.388;37.844;2023-02-21T10:53:32;32.43;;;18.83;;
26014;SDS011;13793;55.388;37.844;2023-02-21T10:56:09;29.37;;;17.60;;
26014;SDS011;13793;55.388;37.844;2023-02-21T10:58:47;31.47;;;17.57;;
26014;SDS011;13793;55.388;37.844;2023-02-21T11:01:29;30.00;;;18.13;;
26014;SDS011;13793;55.388;37.844;2023-02-21T11:04:02;28.87;;;17.00;;
26014;SDS011;13793;55.388;37.844;2023-02-21T11:06:37;28.70;;;16.73;;
26014;SDS011;13793;55.388;37.844;2023-02-21T11:12:24;30.17;;;17.50;;
26014;SDS011;13793;55.388;37.844;2023-02-21T11:14:33;32.53;;;17.30;;
26014;SDS011;13793;55.388;37.844;2023-02-21T11:19:44;31.07;;;17.97;;
26014;SDS011;13793;55.388;37.844;2023-02-21T11:22:20;30.93;;;17.23;;
26014;SDS011;13793;55.388;37.844;2023-02-21T11:24:54;30.73;;;18.40;;
26014;SDS011;13793;55.388;37.844;2023-02-21T11:27:34;28.87;;;17.63;;
26014;SDS011;13793;55.388;37.844;2023-02-21T11:30:17;33.30;;;18.60;;
26014;SDS011;13793;55.388;37.844;2023-02-21T11:32:52;29.60;;;17.33;;
26014;SDS011;13793;55.388;37.844;2023-02-21T11:35:25;31.13;;;18.70;;
26014;SDS011;13793;55.388;37.844;2023-02-21T11:38:03;29.70;;;18.00;;
26014;SDS011;13793;55.388;37.844;2023-02-21T11:40:44;30.72;;;18.40;;
26014;SDS011;13793;55.388;37.844;2023-02-21T11:48:36;30.43;;;18.33;;
26014;SDS011;13793;55.388;37.844;2023-02-21T11:51:37;30.30;;;17.70;;
26014;SDS011;13793;55.388;37.844;2023-02-21T11:53:45;29.60;;;17.60;;
26014;SDS011;13793;55.388;37.844;2023-02-21T11:56:25;31.57;;;17.40;;
26014;SDS011;13793;55.388;37.844;2023-02-21T11:59:50;29.23;;;16.80;;
26014;SDS011;13793;55.388;37.844;2023-02-21T12:01:45;29.70;;;17.20;;
26014;SDS011;13793;55.388;37.844;2023-02-21T12:12:52;32.43;;;17.33;;
26014;SDS011;13793;55.388;37.844;2023-02-21T12:18:32;35.33;;;19.43;;
26014;SDS011;13793;55.388;37.844;2023-02-21T12:21:18;36.28;;;19.73;;
26014;SDS011;13793;55.388;37.844;2023-02-21T12:29:32;36.30;;;17.57;;
26014;SDS011;13793;55.388;37.844;2023-02-21T12:32:24;35.98;;;19.07;;
26014;SDS011;13793;55.388;37.844;2023-02-21T12:35:02;36.60;;;19.50;;
26014;SDS011;13793;55.388;37.844;2023-02-21T12:37:39;37.40;;;19.07;;
26014;SDS011;13793;55.388;37.844;2023-02-21T12:51:13;37.10;;;18.17;;
26014;SDS011;13793;55.388;37.844;2023-02-21T12:54:00;37.50;;;17.73;;
26014;SDS011;13793;55.388;37.844;2023-02-21T12:56:30;35.27;;;17.90;;
26014;SDS011;13793;55.388;37.844;2023-02-21T13:01:42;34.10;;;18.13;;
26014;SDS011;13793;55.388;37.844;2023-02-21T13:04:26;35.08;;;16.75;;
26014;SDS011;13793;55.388;37.844;2023-02-21T13:17:58;41.45;;;19.50;;
26014;SDS011;13793;55.388;37.844;2023-02-21T13:20:38;42.30;;;19.30;;
26014;SDS011;13793;55.388;37.844;2023-02-21T13:29:25;37.53;;;17.80;;
26014;SDS011;13793;55.388;37.844;2023-02-21T13:32:10;39.83;;;21.43;;
26014;SDS011;13793;55.388;37.844;2023-02-21T13:34:46;36.70;;;17.87;;
26014;SDS011;13793;55.388;37.844;2023-02-21T13:37:23;36.73;;;17.30;;
26014;SDS011;13793;55.388;37.844;2023-02-21T13:39:56;35.23;;;17.30;;
26014;SDS011;13793;55.388;37.844;2023-02-21T13:42:30;39.03;;;17.47;;
26014;SDS011;13793;55.388;37.844;2023-02-21T13:45:08;35.00;;;17.63;;
26014;SDS011;13793;55.388;37.844;2023-02-21T13:58:37;39.07;;;17.30;;
26014;SDS011;13793;55.388;37.844;2023-02-21T14:01:13;39.07;;;16.47;;
26014;SDS011;13793;55.388;37.844;2023-02-21T14:03:50;39.70;;;18.27;;
26014;SDS011;13793;55.388;37.844;2023-02-21T14:06:23;37.77;;;19.20;;
26014;SDS011;13793;55.388;37.844;2023-02-21T14:11:45;49.60;;;24.13;;
26014;SDS011;13793;55.388;37.844;2023-02-21T14:14:29;42.60;;;19.67;;
26014;SDS011;13793;55.388;37.844;2023-02-21T14:16:57;47.35;;;20.45;;
26014;SDS011;13793;55.388;37.844;2023-02-21T14:19:31;41.53;;;19.10;;
26014;SDS011;13793;55.388;37.844;2023-02-21T14:24:49;35.97;;;16.43;;
26014;SDS011;13793;55.388;37.844;2023-02-21T14:35:25;41.63;;;18.85;;
26014;SDS011;13793;55.388;37.844;2023-02-21T14:38:01;42.62;;;19.20;;
26014;SDS011;13793;55.388;37.844;2023-02-21T14:40:36;39.35;;;17.30;;
26014;SDS011;13793;55.388;37.844;2023-02-21T14:46:02;37.67;;;16.65;;
26014;SDS011;13793;55.388;37.844;2023-02-21T14:49:03;41.88;;;17.98;;
26014;SDS011;13793;55.388;37.844;2023-02-21T15:05:52;40.45;;;18.80;;
26014;SDS011;13793;55.388;37.844;2023-02-21T15:08:26;39.20;;;17.30;;
26014;SDS011;13793;55.388;37.844;2023-02-21T15:10:54;38.17;;;17.65;;
26014;SDS011;13793;55.388;37.844;2023-02-21T15:13:31;46.50;;;18.12;;
26014;SDS011;13793;55.388;37.844;2023-02-21T15:16:06;34.55;;;17.82;;
26014;SDS011;13793;55.388;37.844;2023-02-21T15:18:57;43.42;;;18.85;;
26014;SDS011;13793;55.388;37.844;2023-02-21T15:21:29;39.35;;;20.08;;
26014;SDS011;13793;55.388;37.844;2023-02-21T15:24:01;39.63;;;18.95;;
26014;SDS011;13793;55.388;37.844;2023-02-21T15:26:34;39.90;;;17.40;;
26014;SDS011;13793;55.388;37.844;2023-02-21T15:29:06;40.73;;;17.12;;
26014;SDS011;13793;55.388;37.844;2023-02-21T15:34:20;35.58;;;15.03;;
26014;SDS011;13793;55.388;37.844;2023-02-21T15:37:05;37.30;;;17.37;;
26014;SDS011;13793;55.388;37.844;2023-02-21T15:40:01;39.30;;;16.73;;
26014;SDS011;13793;55.388;37.844;2023-02-21T15:42:32;37.03;;;15.85;;
26014;SDS011;13793;55.388;37.844;2023-02-21T15:45:05;36.25;;;15.60;;
26014;SDS011;13793;55.388;37.844;2023-02-21T15:47:54;33.78;;;16.50;;
26014;SDS011;13793;55.388;37.844;2023-02-21T15:50:36;36.28;;;16.20;;
26014;SDS011;13793;55.388;37.844;2023-02-21T15:53:10;43.58;;;17.30;;
26014;SDS011;13793;55.388;37.844;2023-02-21T15:55:52;40.60;;;15.90;;
26014;SDS011;13793;55.388;37.844;2023-02-21T15:58:24;37.70;;;16.75;;
26014;SDS011;13793;55.388;37.844;2023-02-21T16:01:05;35.05;;;16.65;;
26014;SDS011;13793;55.388;37.844;2023-02-21T16:03:41;36.63;;;18.92;;
26014;SDS011;13793;55.388;37.844;2023-02-21T16:11:45;38.75;;;18.52;;
26014;SDS011;13793;55.388;37.844;2023-02-21T16:14:22;39.58;;;17.95;;
26014;SDS011;13793;55.388;37.844;2023-02-21T16:17:04;44.30;;;20.55;;
26014;SDS011;13793;55.388;37.844;2023-02-21T16:19:44;52.23;;;20.25;;
26014;SDS011;13793;55.388;37.844;2023-02-21T16:22:34;45.40;;;20.08;;
26014;SDS011;13793;55.388;37.844;2023-02-21T16:27:47;43.10;;;19.92;;
26014;SDS011;13793;55.388;37.844;2023-02-21T16:30:25;39.78;;;19.75;;
26014;SDS011;13793;55.388;37.844;2023-02-21T16:33:01;49.45;;;19.05;;
26014;SDS011;13793;55.388;37.844;2023-02-21T16:35:32;42.53;;;17.55;;
26014;SDS011;13793;55.388;37.844;2023-02-21T16:38:03;42.33;;;18.37;;
26014;SDS011;13793;55.388;37.844;2023-02-21T16:40:35;45.17;;;19.82;;
26014;SDS011;13793;55.388;37.844;2023-02-21T16:43:06;47.08;;;18.80;;
26014;SDS011;13793;55.388;37.844;2023-02-21T16:45:37;47.60;;;18.82;;
26014;SDS011;13793;55.388;37.844;2023-02-21T16:48:12;40.15;;;18.67;;
26014;SDS011;13793;55.388;37.844;2023-02-21T16:50:42;39.95;;;17.82;;
26014;SDS011;13793;55.388;37.844;2023-02-21T16:53:16;37.05;;;17.30;;
26014;SDS011;13793;55.388;37.844;2023-02-21T16:55:47;44.00;;;18.73;;
26014;SDS011;13793;55.388;37.844;2023-02-21T16:58:31;39.05;;;17.95;;
26014;SDS011;13793;55.388;37.844;2023-02-21T17:01:13;43.02;;;19.05;;
26014;SDS011;13793;55.388;37.844;2023-02-21T17:03:46;40.03;;;18.37;;
26014;SDS011;13793;55.388;37.844;2023-02-21T17:06:18;41.42;;;18.42;;
26014;SDS011;13793;55.388;37.844;2023-02-21T17:08:49;39.08;;;18.00;;
26014;SDS011;13793;55.388;37.844;2023-02-21T17:11:20;39.15;;;17.95;;
26014;SDS011;13793;55.388;37.844;2023-02-21T17:13:51;38.20;;;18.23;;
26014;SDS011;13793;55.388;37.844;2023-02-21T17:16:22;43.92;;;18.17;;
26014;SDS011;13793;55.388;37.844;2023-02-21T17:18:52;43.23;;;16.05;;